createdAt,value
2018-12-03T00:01:46.563Z,1.80
2018-12-03T00:06:51.553Z,1.87
2018-12-03T00:11:56.423Z,2.00
2018-12-03T00:17:01.236Z,1.40
2018-12-03T00:22:06.157Z,2.43
2018-12-03T00:27:10.907Z,1.70
2018-12-03T00:32:15.735Z,1.40
2018-12-03T00:37:20.503Z,1.87
2018-12-03T00:42:25.305Z,1.70
2018-12-03T00:47:29.960Z,1.60
2018-12-03T00:52:34.753Z,1.60
2018-12-03T00:57:39.435Z,2.00
2018-12-03T01:02:44.211Z,2.30
2018-12-03T01:07:48.903Z,1.80
2018-12-03T01:12:53.877Z,1.93
2018-12-03T01:17:58.781Z,1.70
2018-12-03T01:23:03.600Z,1.70
2018-12-03T01:28:08.259Z,1.50
2018-12-03T01:33:12.999Z,1.70
2018-12-03T01:38:17.878Z,1.60
2018-12-03T01:43:24.143Z,1.40
2018-12-03T01:48:29.060Z,1.53
2018-12-03T01:53:34.500Z,1.30
2018-12-03T01:58:39.609Z,1.33
2018-12-03T02:03:49.135Z,1.20
2018-12-03T02:09:10.996Z,1.20
2018-12-03T02:14:30.998Z,1.53
2018-12-03T02:19:36.305Z,1.10
2018-12-03T02:24:41.299Z,1.80
2018-12-03T02:29:46.272Z,0.90
2018-12-03T02:34:51.178Z,1.10
2018-12-03T02:39:56.430Z,0.97
2018-12-03T02:45:01.349Z,1.00
2018-12-03T02:50:08.617Z,0.70
2018-12-03T02:55:13.952Z,0.70
2018-12-03T03:00:18.830Z,0.77
2018-12-03T03:05:24.704Z,0.40
2018-12-03T03:10:29.612Z,0.40
2018-12-03T03:15:34.699Z,0.87
2018-12-03T03:20:39.468Z,0.53
2018-12-03T03:25:44.409Z,0.50
2018-12-03T03:30:49.453Z,1.10
2018-12-03T03:35:54.506Z,0.63
2018-12-03T03:41:01.404Z,0.50
2018-12-03T03:46:16.257Z,0.57
2018-12-03T03:51:21.058Z,0.60
2018-12-03T03:56:25.864Z,0.90
2018-12-03T04:01:30.708Z,0.63
2018-12-03T04:06:35.662Z,0.73
2018-12-03T04:11:40.480Z,0.70
2018-12-03T04:16:45.411Z,0.70
2018-12-03T04:21:50.567Z,0.90
2018-12-03T04:26:55.376Z,1.13
2018-12-03T04:32:00.261Z,0.80
2018-12-03T04:37:05.183Z,1.17
2018-12-03T04:42:10.074Z,0.80
2018-12-03T04:47:14.957Z,0.67
2018-12-03T04:52:19.674Z,0.80
2018-12-03T04:57:24.387Z,2.07
2018-12-03T05:02:29.051Z,1.30
2018-12-03T05:07:34.027Z,1.07
2018-12-03T05:12:38.828Z,1.30
2018-12-03T05:17:44.670Z,1.13
2018-12-03T05:22:49.541Z,1.27
2018-12-03T05:27:59.425Z,3.83
2018-12-03T05:33:05.879Z,9.97
2018-12-03T05:38:10.414Z,5.80
2018-12-03T05:43:14.993Z,3.70
2018-12-03T05:48:19.569Z,4.97
2018-12-03T05:53:24.098Z,7.87
2018-12-03T05:58:28.627Z,26.93
2018-12-03T06:03:33.383Z,7.90
2018-12-03T06:08:37.884Z,12.27
2018-12-03T06:13:42.389Z,6.50
2018-12-03T06:18:47.316Z,9.50
2018-12-03T06:23:51.902Z,5.50
2018-12-03T06:28:56.490Z,3.60
2018-12-03T06:34:01.090Z,4.17
2018-12-03T06:39:09.642Z,6.00
2018-12-03T06:44:14.157Z,12.23
2018-12-03T06:49:18.651Z,13.50
2018-12-03T06:54:23.144Z,13.80
2018-12-03T06:59:27.677Z,20.27
2018-12-03T07:04:32.148Z,8.37
2018-12-03T07:09:36.660Z,15.33
2018-12-03T07:14:41.145Z,12.70
2018-12-03T07:19:45.621Z,12.33
2018-12-03T07:24:50.102Z,12.67
2018-12-03T07:30:44.600Z,6.30
2018-12-03T07:41:23.864Z,9.07
2018-12-03T07:46:32.641Z,10.67
2018-12-03T07:51:37.339Z,9.30
2018-12-03T07:56:42.071Z,12.20
2018-12-03T08:01:48.530Z,7.77
2018-12-03T08:06:53.285Z,13.77
2018-12-03T08:11:58.855Z,18.93
2018-12-03T08:17:03.591Z,10.50
2018-12-03T08:22:10.314Z,9.43
2018-12-03T08:27:15.010Z,11.47
2018-12-03T08:32:19.684Z,7.50
2018-12-03T08:37:24.246Z,4.87
2018-12-03T08:42:28.806Z,3.00
2018-12-03T08:47:34.012Z,2.50
2018-12-03T08:52:38.613Z,4.43
2018-12-03T08:57:43.181Z,3.40
2018-12-03T09:02:56.983Z,9.87
2018-12-03T09:08:01.724Z,3.57
2018-12-03T09:13:21.286Z,3.07
2018-12-03T09:18:31.339Z,2.70
2018-12-03T09:23:35.911Z,3.17
2018-12-03T09:28:40.463Z,2.27
2018-12-03T09:33:50.020Z,2.00
2018-12-03T09:39:12.938Z,2.33
2018-12-03T09:44:17.483Z,1.73
2018-12-03T09:49:21.991Z,2.10
2018-12-03T09:54:26.606Z,1.10
2018-12-03T09:59:32.376Z,0.97
2018-12-03T10:04:41.659Z,1.17
2018-12-03T10:09:46.142Z,1.07
2018-12-03T10:14:50.618Z,1.07
2018-12-03T10:19:55.085Z,0.83
2018-12-03T10:24:59.582Z,0.90
2018-12-03T10:30:12.378Z,0.80
2018-12-03T10:35:17.047Z,1.03
2018-12-03T10:40:22.295Z,0.70
2018-12-03T10:45:26.876Z,0.87
2018-12-03T10:50:31.426Z,0.50
2018-12-03T10:55:43.720Z,0.50
2018-12-03T11:01:51.895Z,0.43
2018-12-03T11:06:56.475Z,0.30
2018-12-03T11:12:01.042Z,0.37
2018-12-03T11:17:06.711Z,1.50
2018-12-03T11:22:11.304Z,0.50
2018-12-03T11:27:15.946Z,0.40
2018-12-03T11:32:21.331Z,2.13
2018-12-03T11:37:25.832Z,1.90
2018-12-03T11:42:34.227Z,3.37
2018-12-03T11:47:38.733Z,2.10
2018-12-03T11:52:43.280Z,1.90
2018-12-03T11:57:47.822Z,2.77
2018-12-03T12:02:52.345Z,2.80
2018-12-03T12:07:56.867Z,1.83
2018-12-03T12:13:01.359Z,1.90
2018-12-03T12:18:05.959Z,1.03
2018-12-03T12:23:10.484Z,7.67
2018-12-03T12:28:15.015Z,1.63
2018-12-03T12:33:19.535Z,2.80
2018-12-03T12:38:24.084Z,1.20
2018-12-03T12:43:28.562Z,0.60
2018-12-03T12:48:33.122Z,0.53
2018-12-03T12:53:37.600Z,0.63
2018-12-03T12:58:42.086Z,1.30
2018-12-03T13:03:46.648Z,1.60
2018-12-03T13:08:51.214Z,0.93
2018-12-03T13:13:55.830Z,3.50
2018-12-03T13:19:00.436Z,3.07
2018-12-03T13:24:05.027Z,2.37
2018-12-03T13:29:09.569Z,3.03
2018-12-03T13:34:14.139Z,20.70
2018-12-03T13:39:23.061Z,12.23
2018-12-03T13:44:25.428Z,6.50
2018-12-03T13:49:39.789Z,4.10
2018-12-03T13:54:55.855Z,2.10
2018-12-03T14:00:00.468Z,1.30
2018-12-03T14:05:05.951Z,1.33
2018-12-03T14:10:35.949Z,1.40
2018-12-03T14:43:20.197Z,0.60
2018-12-03T14:48:25.032Z,0.57
2018-12-03T14:53:30.556Z,0.60
2018-12-03T14:58:37.824Z,0.50
2018-12-03T15:09:24.149Z,1.20
2018-12-03T15:14:28.720Z,4.07
2018-12-03T15:19:34.251Z,4.73
2018-12-03T15:24:40.093Z,3.50
2018-12-03T15:29:44.623Z,4.13
2018-12-03T15:34:49.399Z,2.13
2018-12-03T15:39:55.375Z,2.03
2018-12-03T15:50:56.573Z,4.93
2018-12-03T15:56:14.671Z,3.70
2018-12-03T16:01:22.120Z,3.23
2018-12-03T16:06:28.692Z,4.20
2018-12-03T16:11:33.318Z,3.60
2018-12-03T16:16:37.845Z,6.97
2018-12-03T17:01:51.605Z,9.70
2018-12-03T17:07:31.248Z,10.87
2018-12-03T17:12:45.938Z,18.33
2018-12-03T17:46:48.563Z,9.70
2018-12-03T17:57:44.143Z,6.30
2018-12-03T18:03:18.394Z,4.70
2018-12-03T18:08:22.955Z,3.40
